sensor_id;sensor_type;location;lat;lon;timestamp;P1;durP1;ratioP1;P2;durP2;ratioP2
71435;SDS011;59251;51.326;12.370;2022-07-26T00:01:54;12.53;;;6.33;;
71435;SDS011;59251;51.326;12.370;2022-07-26T00:04:19;12.35;;;6.28;;
71435;SDS011;59251;51.326;12.370;2022-07-26T00:06:45;12.23;;;6.23;;
71435;SDS011;59251;51.326;12.370;2022-07-26T00:09:10;11.87;;;6.20;;
71435;SDS011;59251;51.326;12.370;2022-07-26T00:11:36;12.52;;;5.82;;
71435;SDS011;59251;51.326;12.370;2022-07-26T00:14:02;11.63;;;6.57;;
71435;SDS011;59251;51.326;12.370;2022-07-26T00:16:28;11.93;;;6.00;;
71435;SDS011;59251;51.326;12.370;2022-07-26T00:18:54;11.93;;;6.30;;
71435;SDS011;59251;51.326;12.370;2022-07-26T00:21:19;11.87;;;5.70;;
71435;SDS011;59251;51.326;12.370;2022-07-26T00:23:45;10.27;;;5.82;;
71435;SDS011;59251;51.326;12.370;2022-07-26T00:26:10;10.47;;;5.93;;
71435;SDS011;59251;51.326;12.370;2022-07-26T00:28:36;11.80;;;6.13;;
71435;SDS011;59251;51.326;12.370;2022-07-26T00:31:02;11.03;;;6.00;;
71435;SDS011;59251;51.326;12.370;2022-07-26T00:33:27;12.10;;;6.03;;
71435;SDS011;59251;51.326;12.370;2022-07-26T00:35:53;12.20;;;5.90;;
71435;SDS011;59251;51.326;12.370;2022-07-26T00:38:18;12.77;;;6.28;;
71435;SDS011;59251;51.326;12.370;2022-07-26T00:40:44;11.13;;;5.93;;
71435;SDS011;59251;51.326;12.370;2022-07-26T00:43:09;11.17;;;5.70;;
71435;SDS011;59251;51.326;12.370;2022-07-26T00:45:35;11.70;;;6.27;;
71435;SDS011;59251;51.326;12.370;2022-07-26T00:48:00;10.02;;;6.28;;
71435;SDS011;59251;51.326;12.370;2022-07-26T00:50:26;13.87;;;6.13;;
71435;SDS011;59251;51.326;12.370;2022-07-26T00:52:51;10.10;;;5.60;;
71435;SDS011;59251;51.326;12.370;2022-07-26T00:55:18;9.70;;;5.38;;
71435;SDS011;59251;51.326;12.370;2022-07-26T00:57:44;13.27;;;6.25;;
71435;SDS011;59251;51.326;12.370;2022-07-26T01:00:14;10.30;;;5.63;;
71435;SDS011;59251;51.326;12.370;2022-07-26T01:02:42;12.97;;;5.60;;
71435;SDS011;59251;51.326;12.370;2022-07-26T01:05:08;11.40;;;5.55;;
71435;SDS011;59251;51.326;12.370;2022-07-26T01:07:35;10.75;;;5.28;;
71435;SDS011;59251;51.326;12.370;2022-07-26T01:10:03;10.82;;;5.53;;
71435;SDS011;59251;51.326;12.370;2022-07-26T01:12:31;10.10;;;5.40;;
71435;SDS011;59251;51.326;12.370;2022-07-26T01:14:56;10.77;;;5.53;;
71435;SDS011;59251;51.326;12.370;2022-07-26T01:17:21;8.87;;;5.03;;
71435;SDS011;59251;51.326;12.370;2022-07-26T01:19:47;12.17;;;5.77;;
71435;SDS011;59251;51.326;12.370;2022-07-26T01:22:12;10.30;;;5.07;;
71435;SDS011;59251;51.326;12.370;2022-07-26T01:24:38;9.13;;;5.53;;
71435;SDS011;59251;51.326;12.370;2022-07-26T01:27:03;10.15;;;5.32;;
71435;SDS011;59251;51.326;12.370;2022-07-26T01:29:28;10.67;;;5.00;;
71435;SDS011;59251;51.326;12.370;2022-07-26T01:31:54;10.87;;;4.90;;
71435;SDS011;59251;51.326;12.370;2022-07-26T01:34:19;9.83;;;5.47;;
71435;SDS011;59251;51.326;12.370;2022-07-26T01:36:45;10.32;;;5.90;;
71435;SDS011;59251;51.326;12.370;2022-07-26T01:39:10;10.73;;;6.03;;
71435;SDS011;59251;51.326;12.370;2022-07-26T01:41:36;10.57;;;5.70;;
71435;SDS011;59251;51.326;12.370;2022-07-26T01:44:02;11.13;;;6.10;;
71435;SDS011;59251;51.326;12.370;2022-07-26T01:46:27;11.23;;;6.10;;
71435;SDS011;59251;51.326;12.370;2022-07-26T01:48:53;15.85;;;6.40;;
71435;SDS011;59251;51.326;12.370;2022-07-26T01:51:18;10.80;;;5.97;;
71435;SDS011;59251;51.326;12.370;2022-07-26T01:53:44;11.90;;;6.50;;
71435;SDS011;59251;51.326;12.370;2022-07-26T01:56:10;10.82;;;6.22;;
71435;SDS011;59251;51.326;12.370;2022-07-26T01:58:36;12.95;;;6.25;;
71435;SDS011;59251;51.326;12.370;2022-07-26T02:01:02;11.33;;;6.40;;
71435;SDS011;59251;51.326;12.370;2022-07-26T02:03:27;10.93;;;6.60;;
71435;SDS011;59251;51.326;12.370;2022-07-26T02:05:53;13.17;;;6.60;;
71435;SDS011;59251;51.326;12.370;2022-07-26T02:08:18;12.23;;;6.57;;
71435;SDS011;59251;51.326;12.370;2022-07-26T02:10:44;9.80;;;6.27;;
71435;SDS011;59251;51.326;12.370;2022-07-26T02:13:24;11.90;;;6.07;;
71435;SDS011;59251;51.326;12.370;2022-07-26T02:15:50;11.80;;;6.20;;
71435;SDS011;59251;51.326;12.370;2022-07-26T02:18:16;12.48;;;6.50;;
71435;SDS011;59251;51.326;12.370;2022-07-26T02:20:42;11.47;;;6.40;;
71435;SDS011;59251;51.326;12.370;2022-07-26T02:23:07;12.97;;;6.63;;
71435;SDS011;59251;51.326;12.370;2022-07-26T02:25:33;13.60;;;6.75;;
71435;SDS011;59251;51.326;12.370;2022-07-26T02:27:58;14.00;;;6.53;;
71435;SDS011;59251;51.326;12.370;2022-07-26T02:30:25;12.75;;;7.03;;
71435;SDS011;59251;51.326;12.370;2022-07-26T02:32:50;13.03;;;6.60;;
71435;SDS011;59251;51.326;12.370;2022-07-26T02:35:16;10.77;;;6.43;;
71435;SDS011;59251;51.326;12.370;2022-07-26T02:37:41;11.60;;;6.40;;
71435;SDS011;59251;51.326;12.370;2022-07-26T02:40:07;10.90;;;6.47;;
71435;SDS011;59251;51.326;12.370;2022-07-26T02:42:32;11.63;;;6.37;;
71435;SDS011;59251;51.326;12.370;2022-07-26T02:44:58;10.88;;;5.93;;
71435;SDS011;59251;51.326;12.370;2022-07-26T02:47:23;10.63;;;5.97;;
71435;SDS011;59251;51.326;12.370;2022-07-26T02:49:49;13.40;;;6.17;;
71435;SDS011;59251;51.326;12.370;2022-07-26T02:52:14;13.17;;;6.07;;
71435;SDS011;59251;51.326;12.370;2022-07-26T02:54:40;11.97;;;5.00;;
71435;SDS011;59251;51.326;12.370;2022-07-26T02:57:05;8.60;;;4.37;;
71435;SDS011;59251;51.326;12.370;2022-07-26T02:59:31;9.43;;;3.83;;
71435;SDS011;59251;51.326;12.370;2022-07-26T03:01:56;10.07;;;4.00;;
71435;SDS011;59251;51.326;12.370;2022-07-26T03:04:22;9.13;;;3.10;;
71435;SDS011;59251;51.326;12.370;2022-07-26T03:06:47;10.93;;;3.40;;
71435;SDS011;59251;51.326;12.370;2022-07-26T03:09:13;8.50;;;3.40;;
71435;SDS011;59251;51.326;12.370;2022-07-26T03:11:38;8.97;;;3.20;;
71435;SDS011;59251;51.326;12.370;2022-07-26T03:14:04;11.23;;;3.60;;
71435;SDS011;59251;51.326;12.370;2022-07-26T03:16:29;8.52;;;3.13;;
71435;SDS011;59251;51.326;12.370;2022-07-26T03:18:55;9.43;;;3.80;;
71435;SDS011;59251;51.326;12.370;2022-07-26T03:21:20;12.40;;;3.08;;
71435;SDS011;59251;51.326;12.370;2022-07-26T03:23:46;7.93;;;2.80;;
71435;SDS011;59251;51.326;12.370;2022-07-26T03:26:11;9.37;;;3.60;;
71435;SDS011;59251;51.326;12.370;2022-07-26T03:28:37;11.60;;;3.30;;
71435;SDS011;59251;51.326;12.370;2022-07-26T03:31:03;11.18;;;3.28;;
71435;SDS011;59251;51.326;12.370;2022-07-26T03:33:29;12.17;;;3.07;;
71435;SDS011;59251;51.326;12.370;2022-07-26T03:35:54;9.15;;;3.20;;
71435;SDS011;59251;51.326;12.370;2022-07-26T03:38:20;9.50;;;2.70;;
71435;SDS011;59251;51.326;12.370;2022-07-26T03:40:45;8.68;;;3.20;;
71435;SDS011;59251;51.326;12.370;2022-07-26T03:43:11;9.43;;;3.20;;
71435;SDS011;59251;51.326;12.370;2022-07-26T03:45:36;9.83;;;2.90;;
71435;SDS011;59251;51.326;12.370;2022-07-26T03:48:02;9.50;;;2.80;;
71435;SDS011;59251;51.326;12.370;2022-07-26T03:50:27;7.70;;;2.53;;
71435;SDS011;59251;51.326;12.370;2022-07-26T03:52:53;8.93;;;3.00;;
71435;SDS011;59251;51.326;12.370;2022-07-26T03:55:18;10.23;;;2.87;;
71435;SDS011;59251;51.326;12.370;2022-07-26T03:58:02;10.85;;;2.78;;
71435;SDS011;59251;51.326;12.370;2022-07-26T04:00:28;8.10;;;2.80;;
71435;SDS011;59251;51.326;12.370;2022-07-26T04:02:53;8.98;;;3.08;;
71435;SDS011;59251;51.326;12.370;2022-07-26T04:05:18;10.77;;;3.27;;
71435;SDS011;59251;51.326;12.370;2022-07-26T04:07:44;8.53;;;2.83;;
71435;SDS011;59251;51.326;12.370;2022-07-26T04:10:11;10.73;;;2.90;;
71435;SDS011;59251;51.326;12.370;2022-07-26T04:12:37;9.50;;;2.92;;
71435;SDS011;59251;51.326;12.370;2022-07-26T04:15:03;8.67;;;3.03;;
71435;SDS011;59251;51.326;12.370;2022-07-26T04:17:34;8.60;;;3.00;;
71435;SDS011;59251;51.326;12.370;2022-07-26T04:20:01;10.70;;;3.15;;
71435;SDS011;59251;51.326;12.370;2022-07-26T04:22:26;11.40;;;3.17;;
71435;SDS011;59251;51.326;12.370;2022-07-26T04:24:52;8.97;;;3.20;;
71435;SDS011;59251;51.326;12.370;2022-07-26T04:27:17;10.83;;;2.87;;
71435;SDS011;59251;51.326;12.370;2022-07-26T04:29:42;9.20;;;2.60;;
71435;SDS011;59251;51.326;12.370;2022-07-26T04:32:08;10.13;;;3.05;;
71435;SDS011;59251;51.326;12.370;2022-07-26T04:34:33;8.43;;;2.83;;
71435;SDS011;59251;51.326;12.370;2022-07-26T04:36:58;10.43;;;3.00;;
71435;SDS011;59251;51.326;12.370;2022-07-26T04:39:24;10.97;;;3.07;;
71435;SDS011;59251;51.326;12.370;2022-07-26T04:41:49;10.33;;;3.03;;
71435;SDS011;59251;51.326;12.370;2022-07-26T04:44:15;9.52;;;3.40;;
71435;SDS011;59251;51.326;12.370;2022-07-26T04:46:40;9.27;;;3.20;;
71435;SDS011;59251;51.326;12.370;2022-07-26T04:49:05;11.60;;;3.50;;
71435;SDS011;59251;51.326;12.370;2022-07-26T04:51:31;9.53;;;3.40;;
71435;SDS011;59251;51.326;12.370;2022-07-26T04:53:56;8.87;;;3.13;;
71435;SDS011;59251;51.326;12.370;2022-07-26T04:56:22;11.60;;;5.60;;
71435;SDS011;59251;51.326;12.370;2022-07-26T04:58:47;11.67;;;3.00;;
71435;SDS011;59251;51.326;12.370;2022-07-26T05:01:12;9.77;;;2.63;;
71435;SDS011;59251;51.326;12.370;2022-07-26T05:03:38;8.77;;;2.50;;
71435;SDS011;59251;51.326;12.370;2022-07-26T05:06:04;8.80;;;2.70;;
71435;SDS011;59251;51.326;12.370;2022-07-26T05:08:29;10.47;;;3.23;;
71435;SDS011;59251;51.326;12.370;2022-07-26T05:10:55;11.73;;;2.80;;
71435;SDS011;59251;51.326;12.370;2022-07-26T05:13:20;9.68;;;3.10;;
71435;SDS011;59251;51.326;12.370;2022-07-26T05:15:45;10.23;;;2.97;;
71435;SDS011;59251;51.326;12.370;2022-07-26T05:18:11;9.07;;;2.93;;
71435;SDS011;59251;51.326;12.370;2022-07-26T05:20:36;9.53;;;2.93;;
71435;SDS011;59251;51.326;12.370;2022-07-26T05:23:02;12.43;;;2.75;;
71435;SDS011;59251;51.326;12.370;2022-07-26T05:25:28;11.33;;;3.00;;
71435;SDS011;59251;51.326;12.370;2022-07-26T05:27:53;9.55;;;2.50;;
71435;SDS011;59251;51.326;12.370;2022-07-26T05:30:19;9.57;;;2.90;;
71435;SDS011;59251;51.326;12.370;2022-07-26T05:32:45;9.95;;;2.50;;
71435;SDS011;59251;51.326;12.370;2022-07-26T05:35:10;9.60;;;2.50;;
71435;SDS011;59251;51.326;12.370;2022-07-26T05:37:36;9.97;;;2.40;;
71435;SDS011;59251;51.326;12.370;2022-07-26T05:40:02;10.30;;;2.58;;
71435;SDS011;59251;51.326;12.370;2022-07-26T05:42:29;10.60;;;2.50;;
71435;SDS011;59251;51.326;12.370;2022-07-26T05:44:54;10.30;;;2.42;;
71435;SDS011;59251;51.326;12.370;2022-07-26T05:47:20;8.87;;;2.53;;
71435;SDS011;59251;51.326;12.370;2022-07-26T05:49:45;7.73;;;2.37;;
71435;SDS011;59251;51.326;12.370;2022-07-26T05:52:11;10.93;;;2.73;;
71435;SDS011;59251;51.326;12.370;2022-07-26T05:54:36;10.53;;;2.40;;
71435;SDS011;59251;51.326;12.370;2022-07-26T05:57:02;11.43;;;2.07;;
71435;SDS011;59251;51.326;12.370;2022-07-26T05:59:28;7.35;;;2.00;;
71435;SDS011;59251;51.326;12.370;2022-07-26T06:01:53;7.03;;;1.77;;
71435;SDS011;59251;51.326;12.370;2022-07-26T06:04:20;12.52;;;2.30;;
71435;SDS011;59251;51.326;12.370;2022-07-26T06:06:47;7.57;;;2.10;;
71435;SDS011;59251;51.326;12.370;2022-07-26T06:09:12;7.30;;;1.87;;
71435;SDS011;59251;51.326;12.370;2022-07-26T06:11:38;8.07;;;1.57;;
71435;SDS011;59251;51.326;12.370;2022-07-26T06:14:03;9.40;;;1.90;;
71435;SDS011;59251;51.326;12.370;2022-07-26T06:16:28;9.23;;;1.70;;
71435;SDS011;59251;51.326;12.370;2022-07-26T06:18:54;6.15;;;1.50;;
71435;SDS011;59251;51.326;12.370;2022-07-26T06:21:19;7.03;;;1.67;;
71435;SDS011;59251;51.326;12.370;2022-07-26T06:23:45;8.20;;;1.30;;
71435;SDS011;59251;51.326;12.370;2022-07-26T06:26:10;6.23;;;1.50;;
71435;SDS011;59251;51.326;12.370;2022-07-26T06:28:36;8.32;;;1.50;;
71435;SDS011;59251;51.326;12.370;2022-07-26T06:31:03;7.07;;;1.50;;
71435;SDS011;59251;51.326;12.370;2022-07-26T06:33:29;7.37;;;1.37;;
71435;SDS011;59251;51.326;12.370;2022-07-26T06:35:54;9.27;;;1.60;;
71435;SDS011;59251;51.326;12.370;2022-07-26T06:38:20;9.73;;;1.60;;
71435;SDS011;59251;51.326;12.370;2022-07-26T06:40:45;5.97;;;1.30;;
71435;SDS011;59251;51.326;12.370;2022-07-26T06:43:10;6.37;;;1.30;;
71435;SDS011;59251;51.326;12.370;2022-07-26T06:45:36;7.57;;;1.40;;
71435;SDS011;59251;51.326;12.370;2022-07-26T06:48:01;7.93;;;1.55;;
71435;SDS011;59251;51.326;12.370;2022-07-26T06:50:27;7.87;;;1.90;;
71435;SDS011;59251;51.326;12.370;2022-07-26T06:52:52;6.53;;;1.63;;
71435;SDS011;59251;51.326;12.370;2022-07-26T06:55:18;7.73;;;1.90;;
71435;SDS011;59251;51.326;12.370;2022-07-26T06:57:43;10.23;;;1.70;;
71435;SDS011;59251;51.326;12.370;2022-07-26T07:00:09;6.80;;;1.53;;
71435;SDS011;59251;51.326;12.370;2022-07-26T07:02:35;8.05;;;1.50;;
71435;SDS011;59251;51.326;12.370;2022-07-26T07:05:01;9.97;;;1.60;;
71435;SDS011;59251;51.326;12.370;2022-07-26T07:07:27;7.73;;;1.70;;
71435;SDS011;59251;51.326;12.370;2022-07-26T07:09:53;6.40;;;1.48;;
71435;SDS011;59251;51.326;12.370;2022-07-26T07:12:19;7.65;;;1.60;;
71435;SDS011;59251;51.326;12.370;2022-07-26T07:14:44;7.77;;;1.67;;
71435;SDS011;59251;51.326;12.370;2022-07-26T07:17:10;9.03;;;1.30;;
71435;SDS011;59251;51.326;12.370;2022-07-26T07:19:36;8.00;;;1.60;;
71435;SDS011;59251;51.326;12.370;2022-07-26T07:22:03;9.23;;;1.58;;
71435;SDS011;59251;51.326;12.370;2022-07-26T07:24:29;8.37;;;1.40;;
71435;SDS011;59251;51.326;12.370;2022-07-26T07:26:55;6.03;;;1.35;;
71435;SDS011;59251;51.326;12.370;2022-07-26T07:29:21;6.13;;;1.60;;
71435;SDS011;59251;51.326;12.370;2022-07-26T07:31:46;7.67;;;1.40;;
71435;SDS011;59251;51.326;12.370;2022-07-26T07:34:13;8.43;;;1.27;;
71435;SDS011;59251;51.326;12.370;2022-07-26T07:36:39;7.93;;;1.20;;
71435;SDS011;59251;51.326;12.370;2022-07-26T07:39:05;7.05;;;1.50;;
71435;SDS011;59251;51.326;12.370;2022-07-26T07:41:30;6.57;;;1.13;;
71435;SDS011;59251;51.326;12.370;2022-07-26T07:43:58;6.80;;;1.30;;
71435;SDS011;59251;51.326;12.370;2022-07-26T07:46:24;6.65;;;1.35;;
71435;SDS011;59251;51.326;12.370;2022-07-26T07:48:50;6.43;;;1.23;;
71435;SDS011;59251;51.326;12.370;2022-07-26T07:51:15;5.40;;;1.27;;
71435;SDS011;59251;51.326;12.370;2022-07-26T07:53:40;6.70;;;1.53;;
71435;SDS011;59251;51.326;12.370;2022-07-26T07:56:06;8.93;;;1.60;;
71435;SDS011;59251;51.326;12.370;2022-07-26T07:58:31;6.53;;;1.17;;
71435;SDS011;59251;51.326;12.370;2022-07-26T08:00:57;6.63;;;1.30;;
71435;SDS011;59251;51.326;12.370;2022-07-26T08:03:22;7.47;;;1.30;;
71435;SDS011;59251;51.326;12.370;2022-07-26T08:05:48;8.38;;;1.30;;
71435;SDS011;59251;51.326;12.370;2022-07-26T08:08:13;9.40;;;1.50;;
71435;SDS011;59251;51.326;12.370;2022-07-26T08:10:40;7.63;;;1.20;;
71435;SDS011;59251;51.326;12.370;2022-07-26T08:13:06;7.43;;;1.60;;
71435;SDS011;59251;51.326;12.370;2022-07-26T08:15:33;4.70;;;0.90;;
71435;SDS011;59251;51.326;12.370;2022-07-26T08:17:58;6.57;;;1.10;;
71435;SDS011;59251;51.326;12.370;2022-07-26T08:20:24;5.87;;;1.10;;
71435;SDS011;59251;51.326;12.370;2022-07-26T08:22:49;4.68;;;1.05;;
71435;SDS011;59251;51.326;12.370;2022-07-26T08:25:14;4.63;;;1.00;;
71435;SDS011;59251;51.326;12.370;2022-07-26T08:27:40;7.47;;;1.10;;
71435;SDS011;59251;51.326;12.370;2022-07-26T08:30:05;6.93;;;1.20;;
71435;SDS011;59251;51.326;12.370;2022-07-26T08:32:31;5.35;;;1.30;;
71435;SDS011;59251;51.326;12.370;2022-07-26T08:34:56;6.70;;;1.20;;
71435;SDS011;59251;51.326;12.370;2022-07-26T08:37:22;6.07;;;1.20;;
71435;SDS011;59251;51.326;12.370;2022-07-26T08:39:47;5.80;;;1.00;;
71435;SDS011;59251;51.326;12.370;2022-07-26T08:42:13;6.10;;;1.33;;
71435;SDS011;59251;51.326;12.370;2022-07-26T08:44:41;7.38;;;1.38;;
71435;SDS011;59251;51.326;12.370;2022-07-26T08:47:16;6.00;;;1.13;;
71435;SDS011;59251;51.326;12.370;2022-07-26T08:49:44;5.57;;;1.20;;
71435;SDS011;59251;51.326;12.370;2022-07-26T08:52:10;6.43;;;1.42;;
71435;SDS011;59251;51.326;12.370;2022-07-26T08:54:44;7.18;;;1.27;;
71435;SDS011;59251;51.326;12.370;2022-07-26T08:57:10;7.00;;;1.20;;
71435;SDS011;59251;51.326;12.370;2022-07-26T08:59:36;6.25;;;1.23;;
71435;SDS011;59251;51.326;12.370;2022-07-26T09:02:03;8.70;;;1.43;;
71435;SDS011;59251;51.326;12.370;2022-07-26T09:04:41;6.70;;;1.20;;
71435;SDS011;59251;51.326;12.370;2022-07-26T09:07:14;5.75;;;1.42;;
71435;SDS011;59251;51.326;12.370;2022-07-26T09:12:20;7.43;;;1.42;;
71435;SDS011;59251;51.326;12.370;2022-07-26T09:14:46;6.83;;;1.50;;
71435;SDS011;59251;51.326;12.370;2022-07-26T09:17:13;6.30;;;1.20;;
71435;SDS011;59251;51.326;12.370;2022-07-26T09:19:39;5.65;;;1.40;;
71435;SDS011;59251;51.326;12.370;2022-07-26T09:22:06;6.00;;;1.50;;
71435;SDS011;59251;51.326;12.370;2022-07-26T09:24:37;6.45;;;1.80;;
71435;SDS011;59251;51.326;12.370;2022-07-26T09:27:10;6.50;;;1.50;;
71435;SDS011;59251;51.326;12.370;2022-07-26T09:29:44;7.43;;;1.63;;
71435;SDS011;59251;51.326;12.370;2022-07-26T09:32:19;5.85;;;1.50;;
71435;SDS011;59251;51.326;12.370;2022-07-26T09:34:52;6.38;;;1.40;;
71435;SDS011;59251;51.326;12.370;2022-07-26T09:37:31;5.80;;;1.48;;
71435;SDS011;59251;51.326;12.370;2022-07-26T09:39:59;5.10;;;1.20;;
71435;SDS011;59251;51.326;12.370;2022-07-26T09:42:26;7.47;;;1.60;;
71435;SDS011;59251;51.326;12.370;2022-07-26T09:44:52;5.43;;;1.60;;
71435;SDS011;59251;51.326;12.370;2022-07-26T09:47:19;6.75;;;1.38;;
71435;SDS011;59251;51.326;12.370;2022-07-26T09:49:44;6.00;;;1.48;;
71435;SDS011;59251;51.326;12.370;2022-07-26T09:52:14;6.23;;;1.43;;
71435;SDS011;59251;51.326;12.370;2022-07-26T09:54:41;5.68;;;1.45;;
71435;SDS011;59251;51.326;12.370;2022-07-26T09:57:10;6.55;;;1.85;;
71435;SDS011;59251;51.326;12.370;2022-07-26T09:59:35;5.83;;;2.00;;
71435;SDS011;59251;51.326;12.370;2022-07-26T10:02:01;7.38;;;2.08;;
71435;SDS011;59251;51.326;12.370;2022-07-26T10:04:26;6.13;;;1.63;;
71435;SDS011;59251;51.326;12.370;2022-07-26T10:06:51;5.30;;;1.30;;
71435;SDS011;59251;51.326;12.370;2022-07-26T10:09:17;6.63;;;1.60;;
71435;SDS011;59251;51.326;12.370;2022-07-26T10:11:48;6.65;;;1.48;;
71435;SDS011;59251;51.326;12.370;2022-07-26T10:19:43;5.00;;;1.38;;
71435;SDS011;59251;51.326;12.370;2022-07-26T10:22:43;6.73;;;1.70;;
71435;SDS011;59251;51.326;12.370;2022-07-26T10:30:22;4.32;;;1.10;;
71435;SDS011;59251;51.326;12.370;2022-07-26T10:35:31;5.23;;;1.30;;
71435;SDS011;59251;51.326;12.370;2022-07-26T10:38:11;6.97;;;1.40;;
71435;SDS011;59251;51.326;12.370;2022-07-26T10:40:37;5.95;;;1.40;;
71435;SDS011;59251;51.326;12.370;2022-07-26T10:43:19;6.55;;;1.52;;
71435;SDS011;59251;51.326;12.370;2022-07-26T10:45:44;5.20;;;1.53;;
71435;SDS011;59251;51.326;12.370;2022-07-26T10:48:10;7.17;;;1.30;;
71435;SDS011;59251;51.326;12.370;2022-07-26T10:50:44;5.95;;;1.30;;
71435;SDS011;59251;51.326;12.370;2022-07-26T10:53:21;6.40;;;1.50;;
71435;SDS011;59251;51.326;12.370;2022-07-26T10:58:21;5.28;;;1.50;;
71435;SDS011;59251;51.326;12.370;2022-07-26T11:00:55;5.80;;;1.50;;
71435;SDS011;59251;51.326;12.370;2022-07-26T11:03:22;5.20;;;1.33;;
71435;SDS011;59251;51.326;12.370;2022-07-26T11:05:47;5.50;;;1.40;;
71435;SDS011;59251;51.326;12.370;2022-07-26T11:08:13;5.15;;;1.55;;
71435;SDS011;59251;51.326;12.370;2022-07-26T11:10:40;7.03;;;1.37;;
71435;SDS011;59251;51.326;12.370;2022-07-26T11:15:38;6.28;;;1.50;;
71435;SDS011;59251;51.326;12.370;2022-07-26T11:20:31;5.50;;;1.48;;
71435;SDS011;59251;51.326;12.370;2022-07-26T11:22:57;5.20;;;1.40;;
71435;SDS011;59251;51.326;12.370;2022-07-26T11:25:22;6.13;;;1.50;;
71435;SDS011;59251;51.326;12.370;2022-07-26T11:30:57;7.95;;;1.80;;
71435;SDS011;59251;51.326;12.370;2022-07-26T11:33:34;6.25;;;1.30;;
71435;SDS011;59251;51.326;12.370;2022-07-26T11:36:03;7.85;;;1.80;;
71435;SDS011;59251;51.326;12.370;2022-07-26T11:41:20;5.43;;;1.37;;
71435;SDS011;59251;51.326;12.370;2022-07-26T11:43:51;5.60;;;1.40;;
71435;SDS011;59251;51.326;12.370;2022-07-26T11:46:17;5.03;;;1.50;;
71435;SDS011;59251;51.326;12.370;2022-07-26T11:48:47;5.95;;;1.35;;
71435;SDS011;59251;51.326;12.370;2022-07-26T11:53:44;6.60;;;1.40;;
71435;SDS011;59251;51.326;12.370;2022-07-26T11:58:37;8.55;;;1.60;;
71435;SDS011;59251;51.326;12.370;2022-07-26T12:01:04;5.53;;;1.70;;
71435;SDS011;59251;51.326;12.370;2022-07-26T12:03:33;6.18;;;1.60;;
71435;SDS011;59251;51.326;12.370;2022-07-26T12:06:05;7.93;;;1.80;;
71435;SDS011;59251;51.326;12.370;2022-07-26T12:08:40;6.55;;;1.70;;
71435;SDS011;59251;51.326;12.370;2022-07-26T12:11:14;6.88;;;1.60;;
71435;SDS011;59251;51.326;12.370;2022-07-26T12:13:59;13.23;;;2.60;;
71435;SDS011;59251;51.326;12.370;2022-07-26T12:16:44;5.72;;;1.90;;
71435;SDS011;59251;51.326;12.370;2022-07-26T12:21:43;5.20;;;1.60;;
71435;SDS011;59251;51.326;12.370;2022-07-26T12:24:12;5.32;;;1.77;;
71435;SDS011;59251;51.326;12.370;2022-07-26T12:29:36;5.35;;;1.77;;
71435;SDS011;59251;51.326;12.370;2022-07-26T12:32:14;5.25;;;1.70;;
71435;SDS011;59251;51.326;12.370;2022-07-26T12:34:56;6.05;;;2.00;;
71435;SDS011;59251;51.326;12.370;2022-07-26T12:37:22;7.30;;;1.90;;
71435;SDS011;59251;51.326;12.370;2022-07-26T12:42:37;5.57;;;1.70;;
71435;SDS011;59251;51.326;12.370;2022-07-26T12:45:08;5.88;;;1.52;;
71435;SDS011;59251;51.326;12.370;2022-07-26T12:47:35;5.13;;;1.67;;
71435;SDS011;59251;51.326;12.370;2022-07-26T12:50:03;8.13;;;2.20;;
71435;SDS011;59251;51.326;12.370;2022-07-26T12:52:30;9.67;;;2.17;;
71435;SDS011;59251;51.326;12.370;2022-07-26T12:54:57;10.82;;;2.35;;
71435;SDS011;59251;51.326;12.370;2022-07-26T12:57:23;7.80;;;2.63;;
71435;SDS011;59251;51.326;12.370;2022-07-26T12:59:52;8.13;;;2.27;;
71435;SDS011;59251;51.326;12.370;2022-07-26T13:02:19;7.05;;;1.98;;
71435;SDS011;59251;51.326;12.370;2022-07-26T13:04:45;5.80;;;1.92;;
71435;SDS011;59251;51.326;12.370;2022-07-26T13:07:12;5.53;;;2.15;;
71435;SDS011;59251;51.326;12.370;2022-07-26T13:09:39;6.23;;;2.30;;
71435;SDS011;59251;51.326;12.370;2022-07-26T13:12:08;6.00;;;2.10;;
71435;SDS011;59251;51.326;12.370;2022-07-26T13:14:35;6.55;;;2.00;;
71435;SDS011;59251;51.326;12.370;2022-07-26T13:17:01;5.93;;;1.83;;
71435;SDS011;59251;51.326;12.370;2022-07-26T13:19:28;6.60;;;2.05;;
71435;SDS011;59251;51.326;12.370;2022-07-26T13:21:54;8.17;;;1.77;;
71435;SDS011;59251;51.326;12.370;2022-07-26T13:24:21;6.00;;;1.80;;
71435;SDS011;59251;51.326;12.370;2022-07-26T13:26:47;6.22;;;1.70;;
71435;SDS011;59251;51.326;12.370;2022-07-26T13:29:12;5.63;;;1.87;;
71435;SDS011;59251;51.326;12.370;2022-07-26T13:31:38;6.87;;;1.80;;
71435;SDS011;59251;51.326;12.370;2022-07-26T13:34:03;10.18;;;2.35;;
71435;SDS011;59251;51.326;12.370;2022-07-26T13:36:29;7.13;;;2.50;;
71435;SDS011;59251;51.326;12.370;2022-07-26T13:38:55;6.45;;;2.17;;
71435;SDS011;59251;51.326;12.370;2022-07-26T13:41:20;7.57;;;2.07;;
71435;SDS011;59251;51.326;12.370;2022-07-26T13:43:46;6.78;;;1.92;;
71435;SDS011;59251;51.326;12.370;2022-07-26T13:46:11;6.00;;;2.03;;
71435;SDS011;59251;51.326;12.370;2022-07-26T13:48:37;5.75;;;1.70;;
71435;SDS011;59251;51.326;12.370;2022-07-26T13:51:03;5.77;;;2.10;;
71435;SDS011;59251;51.326;12.370;2022-07-26T13:53:29;8.88;;;2.00;;
71435;SDS011;59251;51.326;12.370;2022-07-26T13:55:54;8.70;;;1.90;;
71435;SDS011;59251;51.326;12.370;2022-07-26T13:58:23;8.52;;;1.90;;
71435;SDS011;59251;51.326;12.370;2022-07-26T14:00:49;7.18;;;1.65;;
71435;SDS011;59251;51.326;12.370;2022-07-26T14:03:15;9.37;;;1.83;;
71435;SDS011;59251;51.326;12.370;2022-07-26T14:05:40;7.90;;;2.33;;
71435;SDS011;59251;51.326;12.370;2022-07-26T14:08:05;5.53;;;2.13;;
71435;SDS011;59251;51.326;12.370;2022-07-26T14:10:31;6.73;;;2.00;;
71435;SDS011;59251;51.326;12.370;2022-07-26T14:13:01;6.43;;;2.10;;
71435;SDS011;59251;51.326;12.370;2022-07-26T14:15:26;6.27;;;2.00;;
71435;SDS011;59251;51.326;12.370;2022-07-26T14:17:52;7.67;;;2.20;;
71435;SDS011;59251;51.326;12.370;2022-07-26T14:20:17;6.53;;;1.90;;
71435;SDS011;59251;51.326;12.370;2022-07-26T14:22:43;8.10;;;2.20;;
71435;SDS011;59251;51.326;12.370;2022-07-26T14:25:09;7.60;;;2.00;;
71435;SDS011;59251;51.326;12.370;2022-07-26T14:27:34;6.17;;;1.90;;
71435;SDS011;59251;51.326;12.370;2022-07-26T14:30:00;7.20;;;1.90;;
71435;SDS011;59251;51.326;12.370;2022-07-26T14:32:25;6.07;;;1.90;;
71435;SDS011;59251;51.326;12.370;2022-07-26T14:34:51;6.60;;;1.70;;
71435;SDS011;59251;51.326;12.370;2022-07-26T14:37:16;5.73;;;1.90;;
71435;SDS011;59251;51.326;12.370;2022-07-26T14:39:42;6.88;;;1.90;;
71435;SDS011;59251;51.326;12.370;2022-07-26T14:42:07;6.43;;;2.37;;
71435;SDS011;59251;51.326;12.370;2022-07-26T14:44:32;5.57;;;1.97;;
71435;SDS011;59251;51.326;12.370;2022-07-26T14:46:58;6.05;;;1.85;;
71435;SDS011;59251;51.326;12.370;2022-07-26T14:49:24;6.67;;;1.80;;
71435;SDS011;59251;51.326;12.370;2022-07-26T14:51:50;5.75;;;1.83;;
71435;SDS011;59251;51.326;12.370;2022-07-26T14:54:16;5.20;;;1.65;;
71435;SDS011;59251;51.326;12.370;2022-07-26T14:56:42;6.10;;;2.17;;
71435;SDS011;59251;51.326;12.370;2022-07-26T14:59:07;6.23;;;2.10;;
71435;SDS011;59251;51.326;12.370;2022-07-26T15:01:33;8.13;;;2.07;;
71435;SDS011;59251;51.326;12.370;2022-07-26T15:03:58;5.63;;;1.77;;
71435;SDS011;59251;51.326;12.370;2022-07-26T15:06:24;7.10;;;2.07;;
71435;SDS011;59251;51.326;12.370;2022-07-26T15:08:49;6.30;;;2.00;;
71435;SDS011;59251;51.326;12.370;2022-07-26T15:11:15;5.20;;;1.40;;